createdAt,value
2023-04-09T00:00:14.801Z,2.79
2023-04-09T00:01:14.779Z,2.77
2023-04-09T00:02:14.827Z,2.81
2023-04-09T00:03:14.915Z,2.79
2023-04-09T00:04:14.799Z,2.79
2023-04-09T00:05:14.749Z,2.80
2023-04-09T00:06:14.745Z,2.79
2023-04-09T00:07:14.758Z,2.80
2023-04-09T00:08:14.725Z,2.79
2023-04-09T00:09:14.716Z,2.79
2023-04-09T00:10:14.693Z,2.77
2023-04-09T00:11:14.677Z,2.76
2023-04-09T00:12:14.672Z,2.77
2023-04-09T00:13:15.886Z,2.77
2023-04-09T00:14:14.668Z,2.74
2023-04-09T00:15:27.691Z,2.73
2023-04-09T00:16:14.691Z,2.71
2023-04-09T00:17:14.621Z,2.73
2023-04-09T00:18:14.616Z,2.71
2023-04-09T00:19:14.600Z,2.66
2023-04-09T00:20:14.630Z,2.63
2023-04-09T00:21:14.583Z,2.68
2023-04-09T00:22:14.564Z,2.69
2023-04-09T00:23:14.557Z,2.65
2023-04-09T00:24:14.548Z,2.65
2023-04-09T00:25:14.564Z,2.66
2023-04-09T00:26:14.538Z,2.66
2023-04-09T00:27:14.534Z,2.66
2023-04-09T00:28:14.498Z,2.68
2023-04-09T00:29:14.506Z,2.69
2023-04-09T00:30:14.491Z,2.66
2023-04-09T00:31:14.511Z,2.61
2023-04-09T00:32:14.478Z,2.62
2023-04-09T00:33:14.465Z,2.63
2023-04-09T00:34:14.440Z,2.65
2023-04-09T00:35:14.432Z,2.65
2023-04-09T00:36:14.467Z,2.65
2023-04-09T00:37:14.438Z,2.66
2023-04-09T00:38:14.405Z,2.68
2023-04-09T00:39:14.390Z,2.68
2023-04-09T00:40:14.390Z,2.66
2023-04-09T00:41:14.376Z,2.63
2023-04-09T00:42:14.363Z,2.66
2023-04-09T00:43:14.376Z,2.66
2023-04-09T00:44:14.337Z,2.69
2023-04-09T00:45:14.351Z,2.73
2023-04-09T00:46:14.377Z,2.74
2023-04-09T00:47:14.309Z,2.76
2023-04-09T00:48:14.290Z,2.77
2023-04-09T00:49:14.319Z,2.76
2023-04-09T00:50:14.274Z,2.68
2023-04-09T00:51:14.262Z,2.65
2023-04-09T00:52:14.259Z,2.68
2023-04-09T00:53:14.241Z,2.69
2023-04-09T00:54:14.235Z,2.71
2023-04-09T00:55:14.242Z,2.71
2023-04-09T00:56:14.216Z,2.73
2023-04-09T00:57:14.204Z,2.68
2023-04-09T00:58:14.199Z,2.63
2023-04-09T00:59:14.203Z,2.62
2023-04-09T01:00:14.162Z,2.65
2023-04-09T01:01:14.184Z,2.61
2023-04-09T01:02:14.238Z,2.59
2023-04-09T01:03:14.245Z,2.61
2023-04-09T01:04:14.149Z,2.62
2023-04-09T01:05:14.145Z,2.62
2023-04-09T01:06:14.112Z,2.61
2023-04-09T01:07:14.107Z,2.62
2023-04-09T01:08:14.106Z,2.62
2023-04-09T01:09:14.071Z,2.62
2023-04-09T01:10:14.077Z,2.61
2023-04-09T01:11:14.057Z,2.58
2023-04-09T01:12:14.062Z,2.56
2023-04-09T01:13:14.039Z,2.58
2023-04-09T01:14:14.040Z,2.58
2023-04-09T01:15:14.014Z,2.61
2023-04-09T01:16:14.022Z,2.56
2023-04-09T01:17:13.997Z,2.51
2023-04-09T01:18:13.984Z,2.53
2023-04-09T01:19:13.970Z,2.58
2023-04-09T01:20:13.977Z,2.56
2023-04-09T01:21:13.957Z,2.55
2023-04-09T01:22:13.941Z,2.56
2023-04-09T01:23:13.937Z,2.56
2023-04-09T01:24:13.938Z,2.55
2023-04-09T01:25:13.940Z,2.51
2023-04-09T01:26:13.912Z,2.53
2023-04-09T01:27:13.883Z,2.55
2023-04-09T01:28:13.879Z,2.51
2023-04-09T01:29:13.893Z,2.50
2023-04-09T01:49:10.504Z,2.25
2023-04-09T01:50:03.861Z,2.22
2023-04-09T01:51:03.842Z,2.25
2023-04-09T01:52:03.841Z,2.25
2023-04-09T01:53:03.816Z,2.26
2023-04-09T01:54:03.803Z,2.23
2023-04-09T01:55:03.819Z,2.22
2023-04-09T01:56:03.803Z,2.20
2023-04-09T01:57:03.770Z,2.19
2023-04-09T01:58:03.770Z,2.18
2023-04-09T01:59:03.749Z,2.15
2023-04-09T02:00:03.801Z,2.11
2023-04-09T02:01:03.774Z,2.05
2023-04-09T02:02:03.754Z,2.04
2023-04-09T02:03:03.855Z,2.01
2023-04-09T02:04:03.936Z,1.95
2023-04-09T02:05:03.701Z,1.92
2023-04-09T02:06:03.682Z,1.90
2023-04-09T02:07:03.707Z,1.90
2023-04-09T02:08:03.668Z,1.93
2023-04-09T02:09:03.650Z,1.92
2023-04-09T02:10:03.663Z,1.93
2023-04-09T02:11:03.621Z,1.93
2023-04-09T02:12:03.626Z,1.95
2023-04-09T02:13:03.628Z,1.93
2023-04-09T02:14:03.593Z,1.92
2023-04-09T02:15:03.578Z,1.90
2023-04-09T02:16:03.635Z,1.89
2023-04-09T02:17:03.559Z,1.89
2023-04-09T02:18:03.625Z,1.88
2023-04-09T02:19:03.569Z,1.88
2023-04-09T02:20:03.546Z,1.88
2023-04-09T02:21:03.525Z,1.82
2023-04-09T02:22:03.517Z,1.85
2023-04-09T02:23:03.491Z,1.83
2023-04-09T02:24:03.482Z,1.85
2023-04-09T02:25:03.488Z,1.86
2023-04-09T02:26:03.480Z,1.86
2023-04-09T02:27:03.449Z,1.88
2023-04-09T02:28:03.459Z,1.86
2023-04-09T02:29:03.461Z,1.88
2023-04-09T02:30:03.423Z,1.89
2023-04-09T02:31:03.453Z,1.93
2023-04-09T02:32:03.418Z,1.98
2023-04-09T02:33:03.448Z,2.04
2023-04-09T02:34:03.392Z,2.07
2023-04-09T02:35:03.379Z,2.14
2023-04-09T02:36:03.416Z,2.20
2023-04-09T02:37:03.357Z,2.25
2023-04-09T02:38:03.354Z,2.33
2023-04-09T02:39:04.176Z,2.40
2023-04-09T02:40:03.314Z,2.44
2023-04-09T02:41:03.307Z,2.48
2023-04-09T02:42:03.305Z,2.55
2023-04-09T02:43:03.282Z,2.56
2023-04-09T02:44:03.282Z,2.58
2023-04-09T02:45:03.258Z,2.61
2023-04-09T02:46:03.333Z,2.63
2023-04-09T02:47:03.272Z,2.62
2023-04-09T02:48:03.242Z,2.65
2023-04-09T02:49:03.226Z,2.65
2023-04-09T02:50:03.216Z,2.69
2023-04-09T02:51:03.213Z,2.71
2023-04-09T02:52:03.209Z,2.71
2023-04-09T02:53:03.173Z,2.69
2023-04-09T02:54:03.169Z,2.69
2023-04-09T02:55:03.159Z,2.73
2023-04-09T02:56:03.142Z,2.73
2023-04-09T02:57:03.185Z,2.74
2023-04-09T02:58:03.144Z,2.73
2023-04-09T02:59:03.143Z,2.73
2023-04-09T03:00:03.118Z,2.74
2023-04-09T03:01:03.094Z,2.69
2023-04-09T03:02:03.185Z,2.69
2023-04-09T03:03:03.192Z,2.71
2023-04-09T03:04:03.139Z,2.71
2023-04-09T03:05:03.044Z,2.69
2023-04-09T03:06:03.034Z,2.66
2023-04-09T03:07:03.024Z,2.65
2023-04-09T03:08:03.017Z,2.63
2023-04-09T03:09:02.996Z,2.65
2023-04-09T03:10:03.019Z,2.63
2023-04-09T03:11:03.001Z,2.61
2023-04-09T03:12:02.977Z,2.59
2023-04-09T03:13:02.973Z,2.62
2023-04-09T03:14:02.983Z,2.61
2023-04-09T03:15:02.939Z,2.59
2023-04-09T03:16:02.981Z,2.59
2023-04-09T03:17:02.949Z,2.59
2023-04-09T03:18:02.934Z,2.59
2023-04-09T03:19:02.901Z,2.56
2023-04-09T03:20:02.878Z,2.53
2023-04-09T03:21:02.874Z,2.50
2023-04-09T03:22:02.884Z,2.48
2023-04-09T03:23:02.849Z,2.44
2023-04-09T03:24:02.865Z,2.43
2023-04-09T03:25:02.833Z,2.43
2023-04-09T03:26:02.834Z,2.44
2023-04-09T03:27:02.820Z,2.40
2023-04-09T03:28:02.852Z,2.43
2023-04-09T03:29:02.797Z,2.44
2023-04-09T03:30:02.821Z,2.44
2023-04-09T03:31:02.787Z,2.43
2023-04-09T03:32:02.766Z,2.43
2023-04-09T03:33:02.754Z,2.45
2023-04-09T03:34:02.817Z,2.47
2023-04-09T03:35:02.779Z,2.47
2023-04-09T03:36:02.732Z,2.47
2023-04-09T03:37:02.717Z,2.48
2023-04-09T03:38:02.695Z,2.50
2023-04-09T03:39:02.682Z,2.50
2023-04-09T03:40:02.695Z,2.55
2023-04-09T03:41:02.653Z,2.58
2023-04-09T03:42:02.661Z,2.62
2023-04-09T03:43:02.640Z,2.63
2023-04-09T03:44:02.635Z,2.65
2023-04-09T03:45:02.631Z,2.63
2023-04-09T03:46:02.622Z,2.63
2023-04-09T03:47:02.591Z,2.66
2023-04-09T03:48:02.653Z,2.65
2023-04-09T03:49:02.584Z,2.65
2023-04-09T03:50:02.559Z,2.63
2023-04-09T03:51:02.559Z,2.63
2023-04-09T03:52:02.561Z,2.63
2023-04-09T03:53:02.535Z,2.63
2023-04-09T03:54:02.540Z,2.63
2023-04-09T03:55:02.521Z,2.66
2023-04-09T03:56:02.492Z,2.65
2023-04-09T03:57:02.481Z,2.65
2023-04-09T03:58:02.482Z,2.62
2023-04-09T03:59:02.502Z,2.59
2023-04-09T04:00:02.451Z,2.56
2023-04-09T04:01:02.450Z,2.51
2023-04-09T04:02:02.503Z,2.50
2023-04-09T04:03:02.687Z,2.50
2023-04-09T04:04:02.480Z,2.48
2023-04-09T04:05:02.408Z,2.50
2023-04-09T04:06:02.391Z,2.50
2023-04-09T04:07:02.398Z,2.50
2023-04-09T04:08:02.364Z,2.51
2023-04-09T04:09:02.357Z,2.53
2023-04-09T04:10:02.358Z,2.55
2023-04-09T04:11:02.353Z,2.58
2023-04-09T04:12:02.424Z,2.61
2023-04-09T04:13:02.420Z,2.59
2023-04-09T04:14:02.302Z,2.58
2023-04-09T04:15:02.287Z,2.59
2023-04-09T04:16:02.322Z,2.61
2023-04-09T04:17:02.269Z,2.58
2023-04-09T04:18:02.256Z,2.59
2023-04-09T04:19:02.192Z,2.58
2023-04-09T04:20:02.296Z,2.59
2023-04-09T04:21:02.232Z,2.59
2023-04-09T04:22:02.163Z,2.61
2023-04-09T04:23:02.143Z,2.58
2023-04-09T04:24:02.141Z,2.58
2023-04-09T04:25:02.130Z,2.55
2023-04-09T04:26:02.153Z,2.53
2023-04-09T04:27:02.105Z,2.51
2023-04-09T04:28:02.158Z,2.53
2023-04-09T04:29:02.096Z,2.55
2023-04-09T04:30:02.179Z,2.55
2023-04-09T04:31:02.055Z,2.56
2023-04-09T04:32:02.124Z,2.58
2023-04-09T04:33:02.068Z,2.58
2023-04-09T04:34:02.029Z,2.58
2023-04-09T04:35:02.037Z,2.58
2023-04-09T04:36:02.029Z,2.53
2023-04-09T04:37:02.002Z,2.48
2023-04-09T04:38:02.001Z,2.47
2023-04-09T04:39:01.992Z,2.47
2023-04-09T04:40:01.960Z,2.45
2023-04-09T04:41:01.969Z,2.44
2023-04-09T04:42:01.932Z,2.38
2023-04-09T04:43:01.949Z,2.32
2023-04-09T04:44:01.920Z,2.27
2023-04-09T04:45:01.917Z,2.26
2023-04-09T04:46:01.937Z,2.25
2023-04-09T04:47:01.924Z,2.19
2023-04-09T04:48:01.905Z,2.19
2023-04-09T04:49:01.882Z,2.14
2023-04-09T04:50:01.856Z,2.09
2023-04-09T04:51:01.844Z,2.12
2023-04-09T04:52:01.831Z,2.12
2023-04-09T04:53:01.828Z,2.11
2023-04-09T04:54:01.828Z,2.11
2023-04-09T04:55:01.804Z,2.11
2023-04-09T04:56:01.796Z,2.11
2023-04-09T04:57:01.774Z,2.12
2023-04-09T04:58:01.764Z,2.11
2023-04-09T04:59:01.760Z,2.12
2023-04-09T05:00:01.838Z,2.12
2023-04-09T05:01:01.792Z,2.08
2023-04-09T05:02:01.789Z,2.07
2023-04-09T05:03:01.890Z,2.07
2023-04-09T05:04:01.744Z,2.08
2023-04-09T05:05:01.697Z,2.08
2023-04-09T05:06:01.701Z,2.11
2023-04-09T05:07:01.667Z,2.11
2023-04-09T05:08:01.663Z,2.18
2023-04-09T05:09:01.640Z,2.18
2023-04-09T05:10:01.633Z,2.19
2023-04-09T05:11:01.662Z,2.20
2023-04-09T05:12:01.633Z,2.23
2023-04-09T05:13:01.619Z,2.23
2023-04-09T05:14:01.600Z,2.19
2023-04-09T05:15:01.582Z,2.19
2023-04-09T05:16:01.589Z,2.19
2023-04-09T05:17:01.644Z,2.15
2023-04-09T05:18:01.601Z,2.18
2023-04-09T05:19:01.532Z,2.18
2023-04-09T05:20:01.564Z,2.15
2023-04-09T05:21:01.605Z,2.15
2023-04-09T05:22:01.527Z,2.12
2023-04-09T05:23:01.507Z,2.11
2023-04-09T05:24:01.487Z,2.14
2023-04-09T05:25:01.474Z,2.15
2023-04-09T05:26:01.470Z,2.14
2023-04-09T05:27:01.453Z,2.11
2023-04-09T05:28:01.466Z,2.11
2023-04-09T05:29:01.435Z,2.15
2023-04-09T05:30:01.435Z,2.18
2023-04-09T05:31:01.416Z,2.20
2023-04-09T05:32:01.414Z,2.22
2023-04-09T05:33:01.390Z,2.20
2023-04-09T05:34:01.387Z,2.22
2023-04-09T05:35:01.380Z,2.22
2023-04-09T05:36:01.446Z,2.23
2023-04-09T05:37:01.367Z,2.20
2023-04-09T05:38:01.348Z,2.20
2023-04-09T05:39:01.323Z,2.18
2023-04-09T05:40:01.305Z,2.19
2023-04-09T05:41:01.308Z,2.20
2023-04-09T05:42:01.463Z,2.23
2023-04-09T05:43:01.284Z,2.22
2023-04-09T05:44:01.273Z,2.22
2023-04-09T05:45:01.298Z,2.23
2023-04-09T05:46:01.284Z,2.23
2023-04-09T05:47:01.250Z,2.20
2023-04-09T05:48:01.282Z,2.20
2023-04-09T05:49:01.214Z,2.19
2023-04-09T05:50:01.264Z,2.15
2023-04-09T05:51:01.283Z,2.14
2023-04-09T05:52:01.184Z,2.18
2023-04-09T05:53:01.182Z,2.18
2023-04-09T05:54:01.188Z,2.18
2023-04-09T05:55:01.156Z,2.18
2023-04-09T05:56:01.150Z,2.15
2023-04-09T05:57:01.127Z,2.20
2023-04-09T05:58:01.125Z,2.19
2023-04-09T05:59:01.129Z,2.20
2023-04-09T06:00:01.123Z,2.19
2023-04-09T06:01:01.148Z,2.18
2023-04-09T06:02:01.099Z,2.22
2023-04-09T06:03:01.114Z,2.25
2023-04-09T06:04:01.457Z,2.25
2023-04-09T06:05:01.070Z,2.29
2023-04-09T06:06:01.040Z,2.30
2023-04-09T06:07:01.040Z,2.30
2023-04-09T06:08:01.017Z,2.33
2023-04-09T06:09:01.004Z,2.36
2023-04-09T06:10:00.989Z,2.38
2023-04-09T06:11:01.004Z,2.41
2023-04-09T06:12:00.977Z,2.41
2023-04-09T06:13:00.974Z,2.40
2023-04-09T06:14:00.962Z,2.41
2023-04-09T06:15:00.950Z,2.43
2023-04-09T06:16:00.955Z,2.45
2023-04-09T06:17:00.933Z,2.48
2023-04-09T06:18:00.946Z,2.51
2023-04-09T06:19:00.917Z,2.53
2023-04-09T06:20:00.901Z,2.56
2023-04-09T06:21:00.891Z,2.56
2023-04-09T06:22:00.896Z,2.56
2023-04-09T06:23:00.890Z,2.58
2023-04-09T06:24:00.843Z,2.59
2023-04-09T06:25:00.841Z,2.65
2023-04-09T06:26:00.838Z,2.63
2023-04-09T06:27:00.811Z,2.68
2023-04-09T06:28:00.801Z,2.69
2023-04-09T06:29:00.834Z,2.69
2023-04-09T06:30:00.776Z,2.71
2023-04-09T06:31:00.794Z,2.74
2023-04-09T06:32:00.769Z,2.74
2023-04-09T06:33:00.769Z,2.79
2023-04-09T06:34:00.747Z,2.80
2023-04-09T06:35:00.754Z,2.83
2023-04-09T06:36:00.781Z,2.87
2023-04-09T06:37:00.733Z,2.89
2023-04-09T06:38:00.721Z,2.92
2023-04-09T06:39:00.685Z,2.94
2023-04-09T06:40:01.608Z,2.97
2023-04-09T06:41:00.669Z,3.01
2023-04-09T06:42:00.667Z,3.02
2023-04-09T06:43:00.640Z,3.07
2023-04-09T06:44:00.637Z,3.05
2023-04-09T06:45:00.642Z,3.07
2023-04-09T06:46:00.688Z,3.12
2023-04-09T06:47:00.619Z,3.10
2023-04-09T06:48:00.722Z,3.13
2023-04-09T06:49:00.651Z,3.12
2023-04-09T06:50:00.568Z,3.15
2023-04-09T06:51:00.559Z,3.15
2023-04-09T06:52:00.563Z,3.15
2023-04-09T06:53:00.531Z,3.16
2023-04-09T06:54:00.699Z,3.17
2023-04-09T06:55:00.564Z,3.17
2023-04-09T06:56:00.515Z,3.17
2023-04-09T06:57:00.504Z,3.19
2023-04-09T06:58:00.486Z,3.20
2023-04-09T06:59:00.468Z,3.22
2023-04-09T07:00:00.468Z,3.22
2023-04-09T07:01:00.491Z,3.25
2023-04-09T07:02:00.757Z,3.28
2023-04-09T07:03:00.727Z,3.28
2023-04-09T07:04:00.478Z,3.30
2023-04-09T07:05:00.409Z,3.33
2023-04-09T07:06:00.407Z,3.33
2023-04-09T07:07:00.410Z,3.35
2023-04-09T07:08:00.374Z,3.39
2023-04-09T07:09:00.378Z,3.41
2023-04-09T07:10:00.351Z,3.44
2023-04-09T07:11:00.344Z,3.50
2023-04-09T07:12:00.336Z,3.52
2023-04-09T07:13:00.330Z,3.53
2023-04-09T07:14:00.319Z,3.56
2023-04-09T07:15:00.320Z,3.60
2023-04-09T07:16:00.324Z,3.63
2023-04-09T07:17:00.295Z,3.67
2023-04-09T07:18:00.312Z,3.68
2023-04-09T07:19:00.262Z,3.72
2023-04-09T07:20:00.338Z,3.75
2023-04-09T07:21:00.271Z,3.78
2023-04-09T07:22:00.224Z,3.82
2023-04-09T07:23:00.215Z,3.88
2023-04-09T07:24:00.207Z,3.93
2023-04-09T07:25:00.191Z,3.96
2023-04-09T07:26:00.186Z,3.98
2023-04-09T07:27:00.197Z,4.00
2023-04-09T07:28:00.188Z,4.06
2023-04-09T07:29:00.162Z,4.10
2023-04-09T07:30:00.156Z,4.13
2023-04-09T07:31:00.160Z,4.14
2023-04-09T07:32:00.194Z,4.20
2023-04-09T07:33:00.488Z,4.24
2023-04-09T07:34:00.118Z,4.26
2023-04-09T07:35:00.099Z,4.29
2023-04-09T07:36:00.108Z,4.34
2023-04-09T07:37:00.082Z,4.36
2023-04-09T07:38:00.069Z,4.39
2023-04-09T07:39:00.049Z,4.43
2023-04-09T07:40:00.043Z,4.47
2023-04-09T07:41:00.028Z,4.50
2023-04-09T07:42:00.036Z,4.53
2023-04-09T07:43:00.022Z,4.56
2023-04-09T07:43:59.992Z,4.59
2023-04-09T07:45:00.025Z,4.62
2023-04-09T07:46:00.369Z,4.67
2023-04-09T07:47:00.007Z,4.69
2023-04-09T07:48:00.015Z,4.72
2023-04-09T07:48:59.952Z,4.74
2023-04-09T07:49:59.943Z,4.77
2023-04-09T07:50:59.944Z,4.80
2023-04-09T07:51:59.918Z,4.80
2023-04-09T07:52:59.921Z,4.84
2023-04-09T07:53:59.895Z,4.87
2023-04-09T07:54:59.883Z,4.88
2023-04-09T07:55:59.879Z,4.91
2023-04-09T07:56:59.869Z,4.94
2023-04-09T07:57:59.854Z,4.96
2023-04-09T07:58:59.858Z,5.01
2023-04-09T07:59:59.837Z,5.04
2023-04-09T08:00:59.821Z,5.05
2023-04-09T08:01:59.950Z,5.09
2023-04-09T08:02:59.944Z,5.14
2023-04-09T08:04:00.052Z,5.14
2023-04-09T08:04:59.854Z,5.20
2023-04-09T08:05:59.779Z,5.23
2023-04-09T08:06:59.768Z,5.30
2023-04-09T08:07:59.746Z,5.33
2023-04-09T08:08:59.745Z,5.40
2023-04-09T08:09:59.745Z,5.44
2023-04-09T08:10:59.717Z,5.48
2023-04-09T08:11:59.721Z,5.55
2023-04-09T08:12:59.720Z,5.56
2023-04-09T08:13:59.689Z,5.63
2023-04-09T08:14:59.695Z,5.66
2023-04-09T08:15:59.688Z,5.67
2023-04-09T08:16:59.650Z,5.74
2023-04-09T08:17:59.718Z,5.81
2023-04-09T08:18:59.631Z,5.81
2023-04-09T08:19:59.647Z,5.85
2023-04-09T08:20:59.619Z,5.85
2023-04-09T08:21:59.598Z,5.87
2023-04-09T08:22:59.617Z,5.93
2023-04-09T08:23:59.591Z,5.99
2023-04-09T08:25:01.414Z,5.99
2023-04-09T08:25:59.582Z,6.02
2023-04-09T08:26:59.558Z,6.06
2023-04-09T08:27:59.567Z,6.14
2023-04-09T08:28:59.582Z,6.19
2023-04-09T08:29:59.550Z,6.24
2023-04-09T08:30:59.504Z,6.28
2023-04-09T08:31:59.545Z,6.36
2023-04-09T08:32:59.522Z,6.42
2023-04-09T08:33:59.494Z,6.45
2023-04-09T08:34:59.472Z,6.50
2023-04-09T08:36:00.845Z,6.54
2023-04-09T08:36:59.446Z,6.55
2023-04-09T08:37:59.460Z,6.55
2023-04-09T08:38:59.437Z,6.57
2023-04-09T08:39:59.416Z,6.55
2023-04-09T08:40:59.400Z,6.57
2023-04-09T08:41:59.404Z,6.61
2023-04-09T08:42:59.380Z,6.64
2023-04-09T08:43:59.938Z,6.65
2023-04-09T08:44:59.378Z,6.71
2023-04-09T08:45:59.398Z,6.78
2023-04-09T08:46:59.768Z,6.81
2023-04-09T08:47:59.434Z,6.87
2023-04-09T08:48:59.316Z,6.91
2023-04-09T08:49:59.330Z,6.94
2023-04-09T08:50:59.312Z,6.97
2023-04-09T08:51:59.291Z,6.99
2023-04-09T08:52:59.289Z,7.00
2023-04-09T08:54:00.779Z,7.01
2023-04-09T08:54:59.370Z,7.01
2023-04-09T08:55:59.246Z,7.04
2023-04-09T08:56:59.242Z,7.05
2023-04-09T08:57:59.233Z,7.08
2023-04-09T08:58:59.245Z,7.11
2023-04-09T08:59:59.230Z,7.15
2023-04-09T09:00:59.260Z,7.18
2023-04-09T09:01:59.364Z,7.23
2023-04-09T09:02:59.303Z,7.26
2023-04-09T09:03:59.199Z,7.29
2023-04-09T09:04:59.164Z,7.33
2023-04-09T09:05:59.163Z,7.36
2023-04-09T09:06:59.151Z,7.39
2023-04-09T09:07:59.119Z,7.39
2023-04-09T09:08:59.121Z,7.42
2023-04-09T09:09:59.102Z,7.44
2023-04-09T09:10:59.091Z,7.47
2023-04-09T09:11:59.092Z,7.48
2023-04-09T09:12:59.087Z,7.50
2023-04-09T09:13:59.075Z,7.51
2023-04-09T09:14:59.076Z,7.52
2023-04-09T09:15:59.058Z,7.58
2023-04-09T09:16:59.063Z,7.63
2023-04-09T09:17:59.087Z,7.67
2023-04-09T09:18:59.444Z,7.71
2023-04-09T09:19:58.995Z,7.76
2023-04-09T09:20:58.998Z,7.77
2023-04-09T09:21:58.988Z,7.82
2023-04-09T09:22:58.961Z,7.84
2023-04-09T09:23:58.966Z,7.82
2023-04-09T09:24:58.982Z,7.82
2023-04-09T09:25:58.935Z,7.82
2023-04-09T09:26:58.952Z,7.88
2023-04-09T09:27:58.911Z,7.89
2023-04-09T09:28:58.911Z,7.89
2023-04-09T09:29:58.897Z,7.89
2023-04-09T09:30:58.913Z,7.92
2023-04-09T09:31:58.871Z,7.92
2023-04-09T09:32:58.978Z,7.95
2023-04-09T09:33:58.841Z,7.99
2023-04-09T09:34:58.844Z,8.00
2023-04-09T09:35:58.900Z,8.00
2023-04-09T09:36:58.809Z,8.03
2023-04-09T09:37:58.807Z,8.03
2023-04-09T09:38:58.824Z,8.06
2023-04-09T09:39:58.782Z,8.09
2023-04-09T09:40:58.778Z,8.13
2023-04-09T09:41:58.780Z,8.14
2023-04-09T09:42:58.752Z,8.20
2023-04-09T09:43:58.766Z,8.18
2023-04-09T09:44:58.740Z,8.18
2023-04-09T09:45:58.764Z,8.17
2023-04-09T09:46:58.753Z,8.17
2023-04-09T09:47:58.757Z,8.13
2023-04-09T09:48:58.695Z,8.18
2023-04-09T09:49:58.706Z,8.13
2023-04-09T09:50:58.677Z,8.17
2023-04-09T09:51:58.670Z,8.18
2023-04-09T09:52:58.647Z,8.22
2023-04-09T09:53:58.639Z,8.24
2023-04-09T09:54:58.635Z,8.27
2023-04-09T09:55:58.633Z,8.29
2023-04-09T09:56:58.609Z,8.29
2023-04-09T09:57:58.605Z,8.29
2023-04-09T09:58:58.589Z,8.31
2023-04-09T09:59:58.596Z,8.31
2023-04-09T10:00:58.637Z,8.39
2023-04-09T10:01:58.748Z,8.42
2023-04-09T10:02:58.635Z,8.45
2023-04-09T10:03:58.549Z,8.46
2023-04-09T10:04:58.526Z,8.45
2023-04-09T10:05:58.524Z,8.47
2023-04-09T10:06:58.511Z,8.49
2023-04-09T10:07:58.491Z,8.49
2023-04-09T10:08:58.482Z,8.50
2023-04-09T10:09:58.475Z,8.50
2023-04-09T10:10:58.476Z,8.49
2023-04-09T10:11:58.450Z,8.50
2023-04-09T10:12:58.464Z,8.49
2023-04-09T10:13:58.425Z,8.49
2023-04-09T10:14:58.421Z,8.52
2023-04-09T10:15:58.428Z,8.54
2023-04-09T10:16:58.398Z,8.54
2023-04-09T10:17:58.451Z,8.50
2023-04-09T10:18:58.417Z,8.55
2023-04-09T10:19:58.360Z,8.54
2023-04-09T10:20:58.347Z,8.55
2023-04-09T10:21:58.360Z,8.55
2023-04-09T10:22:58.346Z,8.60
2023-04-09T10:23:58.322Z,8.58
2023-04-09T10:24:58.331Z,8.60
2023-04-09T10:25:58.302Z,8.60
2023-04-09T10:26:58.290Z,8.60
2023-04-09T10:27:58.300Z,8.60
2023-04-09T10:28:58.270Z,8.60
2023-04-09T10:29:58.257Z,8.61
2023-04-09T10:30:58.293Z,8.65
2023-04-09T10:31:58.234Z,8.68
2023-04-09T10:32:58.245Z,8.68
2023-04-09T10:33:58.227Z,8.71
2023-04-09T10:34:58.212Z,8.78
2023-04-09T10:35:58.197Z,8.78
2023-04-09T10:36:58.189Z,8.82
2023-04-09T10:37:58.176Z,8.83
2023-04-09T10:38:58.181Z,8.85
2023-04-09T10:39:58.170Z,8.85
2023-04-09T10:40:58.168Z,8.85
2023-04-09T10:41:58.137Z,8.85
2023-04-09T10:42:58.134Z,8.86
2023-04-09T10:43:58.121Z,8.85
2023-04-09T10:44:58.098Z,8.83
2023-04-09T10:45:58.092Z,8.88
2023-04-09T10:46:58.124Z,8.88
2023-04-09T10:47:58.148Z,8.89
2023-04-09T10:48:58.061Z,8.89
2023-04-09T10:49:58.083Z,8.89
2023-04-09T10:50:58.039Z,8.88
2023-04-09T10:51:58.024Z,8.88
2023-04-09T10:52:58.025Z,8.89
2023-04-09T10:53:58.029Z,8.88
2023-04-09T10:54:57.991Z,8.88
2023-04-09T10:55:58.043Z,8.86
2023-04-09T10:56:57.972Z,8.88
2023-04-09T10:57:57.960Z,8.86
2023-04-09T10:58:57.958Z,8.86
2023-04-09T10:59:57.954Z,8.88
2023-04-09T11:00:57.934Z,8.89
2023-04-09T11:01:58.011Z,8.88
2023-04-09T11:02:58.010Z,8.86
2023-04-09T11:03:57.941Z,8.85
2023-04-09T11:04:57.956Z,8.83
2023-04-09T11:05:57.887Z,8.82
2023-04-09T11:06:57.865Z,8.80
2023-04-09T11:07:57.864Z,8.80
2023-04-09T11:08:57.846Z,8.78
2023-04-09T11:09:57.853Z,8.79
2023-04-09T11:10:57.842Z,8.79
2023-04-09T11:11:57.818Z,8.78
2023-04-09T11:12:57.807Z,8.78
2023-04-09T11:13:57.792Z,8.78
2023-04-09T11:14:57.783Z,8.79
2023-04-09T11:15:57.817Z,8.78
2023-04-09T11:16:57.783Z,8.79
2023-04-09T11:17:57.854Z,8.78
2023-04-09T11:18:57.734Z,8.79
2023-04-09T11:19:57.769Z,8.79
2023-04-09T11:20:57.728Z,8.79
2023-04-09T11:21:57.706Z,8.78
2023-04-09T11:22:57.716Z,8.78
2023-04-09T11:23:57.694Z,8.78
2023-04-09T11:24:57.676Z,8.76
2023-04-09T11:25:57.666Z,8.78
2023-04-09T11:26:57.650Z,8.79
2023-04-09T11:27:57.655Z,8.78
2023-04-09T11:28:57.644Z,8.75
2023-04-09T11:29:57.617Z,8.76
2023-04-09T11:30:57.638Z,8.73
2023-04-09T11:31:57.676Z,8.71
2023-04-09T11:32:57.736Z,8.73
2023-04-09T11:33:57.600Z,8.75
2023-04-09T11:34:57.564Z,8.71
2023-04-09T11:35:57.590Z,8.68
2023-04-09T11:36:57.553Z,8.70
2023-04-09T11:37:57.547Z,8.71
2023-04-09T11:38:57.546Z,8.73
2023-04-09T11:39:57.949Z,8.73
2023-04-09T11:40:57.508Z,8.75
2023-04-09T11:41:57.536Z,8.76
2023-04-09T11:42:57.478Z,8.79
2023-04-09T11:43:57.478Z,8.79
2023-04-09T11:44:57.458Z,8.78
2023-04-09T11:45:57.795Z,8.78
2023-04-09T11:46:57.473Z,8.76
2023-04-09T11:47:57.485Z,8.75
2023-04-09T11:48:57.421Z,8.76
2023-04-09T11:49:57.409Z,8.76
2023-04-09T11:50:57.428Z,8.76
2023-04-09T11:51:57.375Z,8.79
2023-04-09T11:52:57.378Z,8.80
2023-04-09T11:53:57.362Z,8.79
2023-04-09T11:54:57.355Z,8.82
2023-04-09T11:55:57.360Z,8.80
2023-04-09T11:56:57.340Z,8.80
2023-04-09T11:57:57.320Z,8.83
2023-04-09T11:58:57.340Z,8.83
2023-04-09T11:59:57.301Z,8.83
2023-04-09T12:00:57.302Z,8.86
2023-04-09T12:01:57.314Z,8.86
2023-04-09T12:02:57.403Z,8.89
2023-04-09T12:03:57.461Z,8.89
2023-04-09T12:04:57.303Z,8.91
2023-04-09T12:05:57.232Z,8.96
2023-04-09T12:06:57.244Z,8.96
2023-04-09T12:07:57.225Z,8.96
2023-04-09T12:08:57.208Z,8.96
2023-04-09T12:09:57.196Z,8.98
2023-04-09T12:10:57.214Z,9.00
2023-04-09T12:11:57.174Z,9.01
2023-04-09T12:12:57.179Z,9.00
2023-04-09T12:13:57.156Z,8.98
2023-04-09T12:14:57.139Z,8.97
2023-04-09T12:15:59.099Z,9.01
2023-04-09T12:16:57.224Z,9.00
2023-04-09T12:17:57.197Z,9.00
2023-04-09T12:18:57.114Z,9.01
2023-04-09T12:19:57.101Z,9.01
2023-04-09T12:20:57.088Z,9.03
2023-04-09T12:21:57.070Z,9.03
2023-04-09T12:22:57.064Z,9.03
2023-04-09T12:23:57.036Z,9.06
2023-04-09T12:24:57.054Z,9.06
2023-04-09T12:25:57.030Z,9.08
2023-04-09T12:26:57.027Z,9.08
2023-04-09T12:27:57.003Z,9.10
2023-04-09T12:28:57.022Z,9.10
2023-04-09T12:29:56.980Z,9.10
2023-04-09T12:30:56.987Z,9.12
2023-04-09T12:31:56.981Z,9.15
2023-04-09T12:32:57.065Z,9.15
2023-04-09T12:33:56.945Z,9.13
2023-04-09T12:34:56.935Z,9.12
2023-04-09T12:35:56.939Z,9.13
2023-04-09T12:36:56.926Z,9.12
2023-04-09T12:37:56.905Z,9.15
2023-04-09T12:38:56.893Z,9.13
2023-04-09T12:39:56.867Z,9.16
2023-04-09T12:40:56.883Z,9.15
2023-04-09T12:41:56.847Z,9.16
2023-04-09T12:42:56.858Z,9.13
2023-04-09T12:43:56.832Z,9.16
2023-04-09T12:44:56.817Z,9.16
2023-04-09T12:45:56.868Z,9.19
2023-04-09T12:46:56.828Z,9.16
2023-04-09T12:47:56.805Z,9.16
2023-04-09T12:48:56.792Z,9.17
2023-04-09T12:49:56.772Z,9.17
2023-04-09T12:50:56.763Z,9.17
2023-04-09T12:51:56.735Z,9.16
2023-04-09T12:52:56.748Z,9.16
2023-04-09T12:53:56.737Z,9.15
2023-04-09T12:54:56.707Z,9.15
2023-04-09T12:55:56.703Z,9.15
2023-04-09T12:56:56.687Z,9.13
2023-04-09T12:57:56.699Z,9.15
2023-04-09T12:58:56.672Z,9.13
2023-04-09T12:59:56.665Z,9.15
2023-04-09T13:00:56.664Z,9.15
2023-04-09T13:01:56.703Z,9.15
2023-04-09T13:02:56.742Z,9.16
2023-04-09T13:03:57.135Z,9.16
2023-04-09T13:04:56.630Z,9.17
2023-04-09T13:05:56.584Z,9.17
2023-04-09T13:06:56.580Z,9.20
2023-04-09T13:07:56.583Z,9.22
2023-04-09T13:08:56.554Z,9.23
2023-04-09T13:09:56.547Z,9.23
2023-04-09T13:10:56.565Z,9.26
2023-04-09T13:11:56.530Z,9.27
2023-04-09T13:12:56.510Z,9.30
2023-04-09T13:13:56.522Z,9.34
2023-04-09T13:14:56.504Z,9.31
2023-04-09T13:15:56.527Z,9.31
2023-04-09T13:16:56.516Z,9.32
2023-04-09T13:17:56.496Z,9.32
2023-04-09T13:18:56.452Z,9.31
2023-04-09T13:19:56.441Z,9.32
2023-04-09T13:20:56.427Z,9.27
2023-04-09T13:21:56.419Z,9.27
2023-04-09T13:22:56.433Z,9.24
2023-04-09T13:23:56.409Z,9.26
2023-04-09T13:24:56.386Z,9.26
2023-04-09T13:25:56.372Z,9.24
2023-04-09T13:26:56.371Z,9.24
2023-04-09T13:27:56.351Z,9.24
2023-04-09T13:28:56.360Z,9.23
2023-04-09T13:29:56.339Z,9.23
2023-04-09T13:30:56.361Z,9.24
2023-04-09T13:31:56.312Z,9.23
2023-04-09T13:32:56.409Z,9.23
2023-04-09T13:33:56.289Z,9.23
2023-04-09T13:34:56.272Z,9.23
2023-04-09T13:35:56.337Z,9.22
2023-04-09T13:36:56.260Z,9.22